Flight Track Log - Related Links

Times and Time Zones

All times are in EST time to prevent confusion due to time zone crossing. See the TAM3119 flight status page for this flight to view local times or setup timezone preferences in your user account.

Time Position Orientation Groundspeed Altitude Reporting Facility
EST Latitude Longitude Course Direction KTS MPH feet Rate Location/Type
Mon 03:38:00 AM -24.0343 -46.8988 209° Southwest  Level Estimated
Mon 03:39:00 AM -24.0924 -46.9338 209° Southwest  Level Estimated
Mon 03:40:00 AM -24.1506 -46.9687 209° Southwest  Level Estimated
Mon 03:41:00 AM -24.2088 -47.0037 209° Southwest  Level Estimated
Mon 03:42:00 AM -24.2670 -47.0387 209° Southwest  Level Estimated
Mon 03:43:00 AM -24.3251 -47.0737 209° Southwest  Level Estimated
Mon 03:44:00 AM -24.3833 -47.1088 209° Southwest  Level Estimated
Mon 03:45:00 AM -24.4414 -47.1439 209° Southwest  Level Estimated
Mon 03:46:00 AM -24.4996 -47.1790 209° Southwest  Level Estimated
Mon 03:47:00 AM -24.5577 -47.2142 209° Southwest  Level Estimated
Mon 03:48:00 AM -24.6158 -47.2494 209° Southwest  Level Estimated
Mon 03:49:00 AM -24.6739 -47.2846 209° Southwest  Level Estimated
Mon 03:50:00 AM -24.7320 -47.3199 209° Southwest  Level Estimated
Mon 03:51:00 AM -24.7901 -47.3552 209° Southwest  Level Estimated
Mon 03:52:00 AM -24.8482 -47.3905 209° Southwest  Level Estimated
Mon 03:53:00 AM -24.9063 -47.4258 209° Southwest  Level Estimated
Mon 03:54:00 AM -24.9644 -47.4613 209° Southwest  Level Estimated
Mon 03:55:00 AM -25.0224 -47.4967 209° Southwest  Level Estimated
Mon 03:56:00 AM -25.0805 -47.5321 209° Southwest  Level Estimated
Mon 03:57:00 AM -25.1385 -47.5676 209° Southwest  Level Estimated
Mon 03:58:00 AM -25.1966 -47.6032 209° Southwest  Level Estimated
Mon 03:59:00 AM -25.2546 -47.6387 209° Southwest  Level Estimated
Mon 04:00:00 AM -25.3126 -47.6743 209° Southwest  Level Estimated
Mon 04:01:00 AM -25.3706 -47.7100 209° Southwest  Level Estimated
Mon 04:02:00 AM -25.4286 -47.7456 209° Southwest  Level Estimated
Mon 04:03:00 AM -25.4866 -47.7813 209° Southwest  Level Estimated
Mon 04:04:00 AM -25.5446 -47.8171 209° Southwest  Level Estimated
Mon 04:05:00 AM -25.6026 -47.8528 209° Southwest  Level Estimated
Mon 04:06:00 AM -25.6606 -47.8886 209° Southwest  Level Estimated
Mon 04:07:00 AM -25.7185 -47.9245 209° Southwest  Level Estimated
Mon 04:08:00 AM -25.7765 -47.9603 209° Southwest  Level Estimated
Mon 04:09:00 AM -25.8344 -47.9963 209° Southwest  Level Estimated
Mon 04:10:00 AM -25.8923 -48.0322 209° Southwest  Level Estimated
Mon 04:11:00 AM -25.9503 -48.0682 209° Southwest  Level Estimated
Mon 04:12:00 AM -26.0082 -48.1042 209° Southwest  Level Estimated
Mon 04:13:00 AM -26.0661 -48.1402 209° Southwest  Level Estimated
Mon 04:14:00 AM -26.1240 -48.1763 209° Southwest  Level Estimated
Mon 04:15:00 AM -26.1819 -48.2124 209° Southwest  Level Estimated
Mon 04:16:00 AM -26.2398 -48.2486 209° Southwest  Level Estimated
Mon 04:17:00 AM -26.2976 -48.2848 209° Southwest  Level Estimated
Mon 04:18:00 AM -26.3555 -48.3210 209° Southwest  Level Estimated
Mon 04:19:00 AM -26.4133 -48.3573 209° Southwest  Level Estimated
Mon 04:20:00 AM -26.4712 -48.3936 209° Southwest  Level Estimated
Mon 04:21:00 AM -26.5290 -48.4299 209° Southwest  Level Estimated
Mon 04:22:00 AM -26.5868 -48.4663 209° Southwest  Level Estimated
Mon 04:23:00 AM -26.6446 -48.5027 209° Southwest  Level Estimated
Mon 04:24:00 AM -26.7025 -48.5392 209° Southwest  Level Estimated
Mon 04:25:00 AM -26.7603 -48.5757 209° Southwest  Level Estimated
Mon 04:26:00 AM -26.8181 -48.6122 209° Southwest  Level Estimated
Mon 04:27:00 AM -26.8758 -48.6488 209° Southwest  Level Estimated
Mon 04:28:00 AM -26.8800 -48.6514 209° Southwest  Level Estimated
Mon 04:29:00 AM -26.8800 -48.6514 North  Level Estimated
Mon 04:30:00 AM -26.8800 -48.6514 North  Level Estimated
Mon 04:31:00 AM -26.8800 -48.6514 North  Level Estimated

Login

Don't have an account? Register now (free) for customized features, flight alerts, and more!